createdAt,value
2017-12-08T00:02:15.480Z,47.00
2017-12-08T00:04:44.341Z,46.70
2017-12-08T00:07:13.117Z,47.20
2017-12-08T00:09:42.770Z,48.20
2017-12-08T00:12:11.660Z,47.70
2017-12-08T00:14:41.575Z,47.80
2017-12-08T00:17:11.456Z,48.00
2017-12-08T00:19:41.403Z,48.00
2017-12-08T00:22:10.089Z,48.00
2017-12-08T00:24:39.750Z,47.90
2017-12-08T00:27:08.495Z,47.50
2017-12-08T00:29:37.064Z,47.50
2017-12-08T00:32:05.859Z,47.70
2017-12-08T00:34:34.552Z,48.40
2017-12-08T00:37:03.231Z,50.20
2017-12-08T00:39:32.123Z,50.00
2017-12-08T00:42:01.842Z,50.40
2017-12-08T00:44:30.622Z,50.30
2017-12-08T00:46:59.309Z,50.40
2017-12-08T00:49:27.998Z,50.40
2017-12-08T00:51:56.682Z,50.10
2017-12-08T00:54:25.367Z,50.20
2017-12-08T00:56:54.052Z,50.20
2017-12-08T00:59:23.559Z,49.30
2017-12-08T01:01:52.243Z,49.50
2017-12-08T01:04:20.930Z,49.20
2017-12-08T01:06:50.435Z,49.30
2017-12-08T01:09:19.124Z,49.00
2017-12-08T01:11:48.012Z,48.50
2017-12-08T01:14:16.699Z,48.80
2017-12-08T01:16:45.598Z,48.70
2017-12-08T01:19:14.587Z,48.10
2017-12-08T01:21:44.256Z,47.60
2017-12-08T01:24:12.980Z,47.70
2017-12-08T01:26:41.774Z,47.50
2017-12-08T01:29:10.558Z,47.20
2017-12-08T01:31:39.246Z,46.90
2017-12-08T01:34:08.134Z,46.60
2017-12-08T01:36:37.639Z,46.10
2017-12-08T01:39:06.532Z,46.10
2017-12-08T01:41:35.423Z,45.60
2017-12-08T01:44:04.120Z,45.90
2017-12-08T01:46:32.999Z,46.00
2017-12-08T01:49:01.698Z,45.80
2017-12-08T01:51:30.577Z,46.10
2017-12-08T01:53:59.470Z,45.90
2017-12-08T01:56:28.262Z,45.70
2017-12-08T01:58:56.950Z,45.70
2017-12-08T02:01:25.630Z,45.10
2017-12-08T02:03:54.424Z,45.00
2017-12-08T02:06:24.070Z,44.80
2017-12-08T02:08:53.019Z,44.80
2017-12-08T02:11:22.726Z,45.30
2017-12-08T02:13:51.604Z,45.20
2017-12-08T02:16:20.516Z,45.10
2017-12-08T02:18:49.401Z,45.40
2017-12-08T02:21:18.293Z,46.00
2017-12-08T02:23:47.735Z,46.20
2017-12-08T02:26:16.494Z,46.10
2017-12-08T02:28:45.280Z,45.90
2017-12-08T02:31:14.165Z,46.40
2017-12-08T02:33:43.052Z,46.10
2017-12-08T02:36:11.946Z,45.60
2017-12-08T02:38:40.839Z,45.50
2017-12-08T02:41:09.829Z,45.50
2017-12-08T02:43:38.619Z,45.80
2017-12-08T02:46:07.357Z,46.30
2017-12-08T02:48:36.094Z,46.10
2017-12-08T02:51:04.777Z,46.20
2017-12-08T02:53:34.593Z,46.70
2017-12-08T02:56:03.290Z,46.70
2017-12-08T02:58:32.169Z,46.90
2017-12-08T03:01:01.058Z,47.20
2017-12-08T03:03:29.949Z,47.70
2017-12-08T03:05:58.843Z,47.90
2017-12-08T03:08:28.552Z,47.80
2017-12-08T03:10:57.339Z,47.80
2017-12-08T03:13:26.134Z,48.70
2017-12-08T03:15:55.021Z,49.50
2017-12-08T03:18:23.706Z,50.70
2017-12-08T03:20:52.700Z,51.00
2017-12-08T03:23:21.387Z,51.20
2017-12-08T03:25:50.276Z,51.70
2017-12-08T03:28:18.971Z,51.70
2017-12-08T03:30:47.797Z,52.00
2017-12-08T03:33:16.892Z,52.60
2017-12-08T03:35:45.693Z,52.90
2017-12-08T03:38:15.469Z,53.70
2017-12-08T03:40:44.447Z,53.50
2017-12-08T03:43:13.338Z,53.50
2017-12-08T03:45:42.234Z,53.30
2017-12-08T03:48:11.934Z,53.70
2017-12-08T03:50:40.624Z,53.70
2017-12-08T03:53:09.514Z,53.80
2017-12-08T03:55:38.405Z,54.00
2017-12-08T03:58:07.296Z,53.90
2017-12-08T04:00:36.200Z,53.80
2017-12-08T04:03:05.074Z,53.30
2017-12-08T04:05:33.958Z,53.60
2017-12-08T04:08:02.859Z,52.80
2017-12-08T04:10:31.618Z,51.50
2017-12-08T04:13:00.434Z,51.40
2017-12-08T04:15:29.271Z,51.50
2017-12-08T04:17:58.162Z,51.80
2017-12-08T04:20:26.908Z,51.90
2017-12-08T04:22:55.792Z,52.20
2017-12-08T04:25:24.553Z,52.20
2017-12-08T04:27:53.373Z,52.20
2017-12-08T04:30:22.270Z,52.50
2017-12-08T04:32:51.052Z,52.60
2017-12-08T04:35:19.942Z,52.20
2017-12-08T04:37:49.043Z,52.40
2017-12-08T04:40:17.722Z,51.90
2017-12-08T04:42:46.418Z,52.00
2017-12-08T04:45:15.300Z,52.10
2017-12-08T04:47:45.021Z,53.00
2017-12-08T04:50:13.906Z,52.50
2017-12-08T04:52:42.798Z,53.00
2017-12-08T04:55:12.508Z,53.30
2017-12-08T04:57:41.598Z,53.20
2017-12-08T05:00:10.734Z,53.50
2017-12-08T05:02:40.405Z,54.00
2017-12-08T05:05:09.088Z,53.90
2017-12-08T05:07:37.980Z,54.50
2017-12-08T05:10:07.083Z,55.00
2017-12-08T05:12:35.938Z,55.20
2017-12-08T05:15:04.960Z,55.20
2017-12-08T05:17:33.728Z,55.50
2017-12-08T05:20:02.687Z,55.80
2017-12-08T05:22:32.666Z,55.80
2017-12-08T05:25:01.754Z,55.90
2017-12-08T05:27:30.651Z,56.00
2017-12-08T05:29:59.541Z,56.10
2017-12-08T05:32:28.437Z,56.00
2017-12-08T05:34:58.038Z,56.00
2017-12-08T05:37:26.988Z,56.30
2017-12-08T05:39:56.430Z,56.70
2017-12-08T05:42:25.326Z,56.60
2017-12-08T05:44:54.419Z,56.70
2017-12-08T05:47:24.026Z,56.70
2017-12-08T05:49:52.718Z,56.70
2017-12-08T05:52:21.611Z,56.90
2017-12-08T05:54:50.500Z,56.70
2017-12-08T05:57:19.535Z,57.00
2017-12-08T05:59:48.493Z,57.20
2017-12-08T06:02:17.370Z,57.40
2017-12-08T06:04:46.213Z,57.80
2017-12-08T06:07:14.949Z,57.90
2017-12-08T06:09:43.838Z,58.20
2017-12-08T06:12:12.532Z,58.40
2017-12-08T06:14:41.315Z,58.70
2017-12-08T06:17:10.003Z,58.90
2017-12-08T06:19:38.895Z,59.10
2017-12-08T06:22:07.781Z,59.40
2017-12-08T06:24:36.507Z,59.50
2017-12-08T06:27:05.256Z,59.70
2017-12-08T06:29:34.148Z,59.50
2017-12-08T06:32:03.040Z,59.50
2017-12-08T06:34:31.736Z,59.60
2017-12-08T06:37:02.869Z,59.50
2017-12-08T06:39:31.558Z,59.50
2017-12-08T06:42:00.247Z,59.60
2017-12-08T06:44:28.927Z,59.60
2017-12-08T06:46:57.715Z,59.50
2017-12-08T06:49:26.610Z,59.50
2017-12-08T06:51:55.300Z,59.50
2017-12-08T06:54:24.083Z,59.40
2017-12-08T06:56:52.768Z,59.40
2017-12-08T06:59:21.562Z,59.40
2017-12-08T07:01:50.242Z,59.30
2017-12-08T07:04:19.135Z,59.30
2017-12-08T07:06:47.819Z,59.30
2017-12-08T07:09:16.610Z,59.00
2017-12-08T07:11:45.500Z,58.90
2017-12-08T07:14:15.211Z,59.00
2017-12-08T07:16:43.998Z,59.00
2017-12-08T07:19:12.686Z,59.10
2017-12-08T07:21:41.578Z,59.10
2017-12-08T07:24:10.467Z,59.20
2017-12-08T07:26:40.187Z,58.60
2017-12-08T07:29:09.071Z,58.50
2017-12-08T07:31:37.857Z,58.60
2017-12-08T07:34:06.645Z,58.40
2017-12-08T07:36:35.538Z,58.20
2017-12-08T07:39:04.427Z,57.70
2017-12-08T07:41:33.319Z,57.60
2017-12-08T07:44:02.005Z,57.60
2017-12-08T07:46:30.690Z,57.70
2017-12-08T07:48:59.375Z,57.90
2017-12-08T07:51:28.267Z,58.60
2017-12-08T07:53:56.953Z,58.10
2017-12-08T07:56:25.640Z,58.10
2017-12-08T07:58:54.505Z,57.80
2017-12-08T08:01:23.322Z,57.80
2017-12-08T08:03:52.419Z,57.80
2017-12-08T08:06:21.051Z,57.70
2017-12-08T08:08:51.223Z,57.60
2017-12-08T08:11:19.911Z,57.60
2017-12-08T08:13:48.801Z,57.50
2017-12-08T08:16:17.690Z,57.40
2017-12-08T08:18:46.581Z,57.40
2017-12-08T08:21:15.473Z,57.50
2017-12-08T08:23:44.302Z,57.50
2017-12-08T08:26:13.052Z,57.30
2017-12-08T08:28:41.839Z,57.40
2017-12-08T08:31:10.463Z,57.40
2017-12-08T08:33:39.160Z,57.20
2017-12-08T08:36:08.041Z,57.10
2017-12-08T08:38:36.788Z,57.00
2017-12-08T08:41:05.681Z,56.80
2017-12-08T08:43:34.678Z,56.60
2017-12-08T08:46:03.512Z,56.70
2017-12-08T08:48:32.249Z,56.90
2017-12-08T08:51:01.148Z,56.90
2017-12-08T08:53:29.835Z,56.60
2017-12-08T08:55:58.513Z,56.50
2017-12-08T08:58:27.405Z,56.60
2017-12-08T09:00:56.091Z,56.60
2017-12-08T09:03:24.880Z,56.60
2017-12-08T09:05:53.980Z,55.70
2017-12-08T09:08:22.863Z,55.70
2017-12-08T09:10:51.651Z,55.60
2017-12-08T09:13:20.545Z,55.60
2017-12-08T09:15:49.387Z,55.70
2017-12-08T09:18:18.123Z,55.70
2017-12-08T09:23:44.577Z,55.60
2017-12-08T09:26:13.366Z,55.80
2017-12-08T09:28:42.255Z,55.50
2017-12-08T09:31:12.067Z,55.60
2017-12-08T09:33:40.970Z,55.60
2017-12-08T09:36:09.848Z,55.70
2017-12-08T09:38:38.742Z,56.00
2017-12-08T09:41:07.632Z,56.00
2017-12-08T09:43:36.316Z,56.10
2017-12-08T09:46:05.207Z,56.10
2017-12-08T09:48:34.098Z,55.50
2017-12-08T09:51:02.989Z,55.00
2017-12-08T09:53:31.882Z,55.00
2017-12-08T09:56:00.771Z,54.90
2017-12-08T09:58:29.413Z,55.10
2017-12-08T10:00:58.349Z,55.60
2017-12-08T10:03:27.047Z,55.20
2017-12-08T10:05:55.889Z,55.50
2017-12-08T10:08:24.822Z,55.60
2017-12-08T10:10:53.605Z,55.70
2017-12-08T10:13:22.502Z,55.90
2017-12-08T10:15:51.329Z,56.10
2017-12-08T10:18:20.073Z,56.30
2017-12-08T10:20:48.967Z,56.30
2017-12-08T10:23:17.706Z,56.30
2017-12-08T10:25:46.441Z,56.20
2017-12-08T10:28:15.332Z,56.40
2017-12-08T10:30:44.220Z,56.60
2017-12-08T10:33:13.012Z,56.70
2017-12-08T10:35:41.874Z,56.30
2017-12-08T10:38:10.791Z,56.50
2017-12-08T10:46:34.912Z,56.30
2017-12-08T10:49:03.598Z,56.30
2017-12-08T10:51:32.489Z,56.50
2017-12-08T10:54:01.380Z,57.00
2017-12-08T10:56:30.168Z,57.20
2017-12-08T10:58:59.062Z,57.10
2017-12-08T11:01:27.891Z,56.90
2017-12-08T11:03:56.586Z,57.00
2017-12-08T11:06:25.276Z,56.70
2017-12-08T11:08:54.024Z,56.90
2017-12-08T11:11:23.528Z,56.60
2017-12-08T11:13:52.405Z,56.70
2017-12-08T11:16:21.295Z,56.40
2017-12-08T11:18:50.131Z,56.20
2017-12-08T11:21:19.106Z,56.10
2017-12-08T11:23:48.071Z,56.20
2017-12-08T11:26:16.863Z,56.50
2017-12-08T11:28:45.752Z,56.20
2017-12-08T11:31:14.648Z,56.10
2017-12-08T11:33:43.536Z,56.00
2017-12-08T11:36:12.424Z,56.50
2017-12-08T11:38:41.320Z,56.90
2017-12-08T11:41:10.006Z,56.50
2017-12-08T11:43:38.893Z,56.60
2017-12-08T11:46:07.786Z,56.50
2017-12-08T11:48:36.675Z,56.40
2017-12-08T11:51:05.572Z,56.80
2017-12-08T11:53:34.457Z,56.90
2017-12-08T11:56:03.581Z,57.10
2017-12-08T11:58:32.442Z,57.00
2017-12-08T12:01:01.128Z,57.10
2017-12-08T12:03:29.919Z,57.00
2017-12-08T12:05:58.608Z,56.50
2017-12-08T12:08:27.495Z,56.50
2017-12-08T12:10:56.182Z,56.90
2017-12-08T12:13:24.867Z,57.20
2017-12-08T12:15:53.757Z,57.70
2017-12-08T12:18:22.444Z,57.80
2017-12-08T12:20:51.342Z,57.80
2017-12-08T12:23:20.226Z,57.90
2017-12-08T12:25:48.915Z,58.00
2017-12-08T12:28:17.905Z,58.40
2017-12-08T12:30:46.797Z,58.90
2017-12-08T12:33:15.893Z,59.20
2017-12-08T12:35:44.783Z,59.40
2017-12-08T12:38:13.826Z,59.00
2017-12-08T12:40:42.773Z,58.70
2017-12-08T12:43:11.559Z,58.90
2017-12-08T12:45:40.964Z,58.10
2017-12-08T12:48:09.853Z,57.20
2017-12-08T12:50:38.847Z,57.40
2017-12-08T12:53:07.754Z,57.50
2017-12-08T12:55:37.244Z,58.00
2017-12-08T12:58:06.136Z,58.00
2017-12-08T13:00:34.926Z,58.00
2017-12-08T13:03:03.818Z,57.30
2017-12-08T13:05:32.510Z,57.50
2017-12-08T13:10:36.244Z,57.60
2017-12-08T13:13:05.164Z,57.70
2017-12-08T13:15:33.798Z,57.60
2017-12-08T13:18:02.487Z,57.50
2017-12-08T13:20:31.170Z,57.80
2017-12-08T13:23:00.066Z,58.00
2017-12-08T13:25:28.966Z,58.10
2017-12-08T13:27:57.845Z,58.30
2017-12-08T13:30:26.531Z,58.60
2017-12-08T13:32:55.319Z,58.70
2017-12-08T13:35:24.009Z,58.40
2017-12-08T13:37:52.635Z,58.10
2017-12-08T13:40:22.051Z,58.20
2017-12-08T13:42:51.812Z,57.90
2017-12-08T13:45:20.884Z,57.90
2017-12-08T13:47:49.536Z,58.20
2017-12-08T13:50:18.276Z,58.20
2017-12-08T13:52:46.962Z,58.30
2017-12-08T13:55:27.669Z,58.30
2017-12-08T13:57:56.516Z,58.30
2017-12-08T14:00:25.211Z,58.40
2017-12-08T14:02:55.099Z,58.10
2017-12-08T14:05:24.017Z,58.10
2017-12-08T14:07:52.964Z,58.00
2017-12-08T14:10:22.622Z,58.00
2017-12-08T14:12:51.508Z,58.00
2017-12-08T14:15:20.397Z,57.80
2017-12-08T14:17:50.111Z,58.10
2017-12-08T14:20:18.895Z,58.00
2017-12-08T14:22:47.513Z,58.30
2017-12-08T14:25:16.474Z,58.30
2017-12-08T14:27:45.578Z,58.60
2017-12-08T14:30:14.459Z,58.30
2017-12-08T14:32:43.356Z,58.70
2017-12-08T14:35:12.037Z,58.70
2017-12-08T14:37:41.142Z,58.70
2017-12-08T14:40:10.172Z,58.60
2017-12-08T14:42:39.057Z,58.60
2017-12-08T14:45:08.727Z,58.10
2017-12-08T14:47:37.511Z,58.10
2017-12-08T14:50:06.315Z,57.70
2017-12-08T14:52:35.193Z,57.40
2017-12-08T14:55:03.880Z,57.60
2017-12-08T14:57:32.604Z,57.60
2017-12-08T15:00:01.373Z,57.90
2017-12-08T15:02:30.244Z,57.90
2017-12-08T15:04:59.135Z,57.60
2017-12-08T15:07:28.031Z,57.30
2017-12-08T15:09:56.920Z,57.10
2017-12-08T15:12:25.602Z,57.30
2017-12-08T15:14:54.493Z,57.10
2017-12-08T15:17:23.183Z,57.00
2017-12-08T15:19:52.073Z,57.60
2017-12-08T15:22:20.963Z,57.40
2017-12-08T15:24:49.873Z,57.90
2017-12-08T15:27:19.579Z,58.00
2017-12-08T15:29:49.223Z,58.00
2017-12-08T15:32:19.394Z,58.40
2017-12-08T15:34:48.081Z,58.30
2017-12-08T15:37:16.972Z,58.00
2017-12-08T15:39:46.683Z,58.80
2017-12-08T15:42:15.565Z,58.50
2017-12-08T15:44:45.473Z,58.80
2017-12-08T15:47:14.351Z,59.00
2017-12-08T15:49:43.371Z,59.00
2017-12-08T15:52:12.784Z,58.90
2017-12-08T15:54:41.672Z,59.20
2017-12-08T15:57:11.170Z,59.50
2017-12-08T15:59:40.392Z,60.00
2017-12-08T16:02:10.797Z,60.30
2017-12-08T16:04:39.696Z,60.30
2017-12-08T16:07:08.751Z,60.40
2017-12-08T16:09:37.766Z,60.80
2017-12-08T16:12:06.523Z,61.00
2017-12-08T16:14:35.622Z,61.30
2017-12-08T16:17:04.775Z,61.90
2017-12-08T16:19:34.808Z,62.70
2017-12-08T16:22:04.176Z,62.40
2017-12-08T16:24:34.160Z,63.40
2017-12-08T16:27:03.788Z,63.70
2017-12-08T16:29:32.748Z,63.70
2017-12-08T16:32:02.366Z,64.50
2017-12-08T16:34:31.501Z,64.40
2017-12-08T16:37:00.564Z,64.60
2017-12-08T16:39:30.311Z,64.90
2017-12-08T16:41:59.812Z,65.10
2017-12-08T16:44:28.703Z,65.10
2017-12-08T16:46:57.492Z,65.20
2017-12-08T16:49:26.394Z,65.40
2017-12-08T16:51:55.276Z,65.90
2017-12-08T16:54:23.959Z,66.00
2017-12-08T16:56:52.649Z,65.80
2017-12-08T16:59:21.563Z,66.10
2017-12-08T17:01:50.429Z,66.40
2017-12-08T17:04:19.113Z,67.40
2017-12-08T17:06:48.003Z,67.00
2017-12-08T17:09:16.910Z,67.00
2017-12-08T17:11:46.357Z,67.90
2017-12-08T17:14:15.087Z,67.50
2017-12-08T17:16:44.151Z,68.10
2017-12-08T17:19:12.979Z,68.10
2017-12-08T17:21:41.862Z,68.90
2017-12-08T17:24:10.769Z,68.80
2017-12-08T17:26:39.579Z,69.00
2017-12-08T17:29:08.544Z,68.90
2017-12-08T17:31:39.067Z,69.60
2017-12-08T17:34:08.064Z,69.60
2017-12-08T17:36:36.849Z,69.90
2017-12-08T17:39:05.748Z,70.50
2017-12-08T17:41:34.607Z,70.30
2017-12-08T17:44:03.486Z,70.40
2017-12-08T17:46:32.323Z,70.30
2017-12-08T17:49:01.172Z,70.10
2017-12-08T17:51:30.090Z,70.40
2017-12-08T17:53:59.599Z,70.30
2017-12-08T17:56:28.384Z,70.20
2017-12-08T17:58:58.401Z,70.10
2017-12-08T18:01:27.366Z,70.40
2017-12-08T18:03:56.382Z,70.70
2017-12-08T18:06:25.484Z,71.00
2017-12-08T18:08:54.274Z,71.40
2017-12-08T18:11:22.960Z,71.60
2017-12-08T18:13:51.597Z,71.70
2017-12-08T18:16:21.211Z,71.90
2017-12-08T18:18:50.153Z,71.80
2017-12-08T18:21:19.302Z,71.60
2017-12-08T18:23:48.130Z,71.40
2017-12-08T18:26:16.816Z,71.20
2017-12-08T18:28:45.707Z,71.30
2017-12-08T18:31:14.397Z,71.30
2017-12-08T18:33:43.285Z,71.60
2017-12-08T18:36:12.178Z,71.70
2017-12-08T18:38:41.005Z,71.90
2017-12-08T18:41:09.753Z,72.20
2017-12-08T18:43:39.063Z,72.10
2017-12-08T18:46:10.812Z,72.10
2017-12-08T18:48:39.714Z,72.10
2017-12-08T18:51:08.395Z,72.20
2017-12-08T18:53:37.281Z,71.80
2017-12-08T18:56:06.376Z,71.50
2017-12-08T18:58:35.266Z,71.70
2017-12-08T19:01:04.157Z,71.40
2017-12-08T19:03:33.048Z,71.20
2017-12-08T19:06:01.975Z,71.00
2017-12-08T19:08:30.832Z,70.90
2017-12-08T19:10:59.722Z,70.70
2017-12-08T19:13:28.420Z,71.00
2017-12-08T19:15:57.298Z,71.10
2017-12-08T19:18:26.196Z,71.60
2017-12-08T19:20:55.085Z,71.20
2017-12-08T19:23:24.383Z,71.50
2017-12-08T19:25:54.079Z,71.40
2017-12-08T19:28:23.135Z,71.40
2017-12-08T19:30:51.880Z,71.40
2017-12-08T19:33:20.772Z,71.10
2017-12-08T19:35:49.605Z,71.40
2017-12-08T19:38:18.574Z,71.00
2017-12-08T19:40:48.259Z,71.00
2017-12-08T19:43:16.945Z,71.00
2017-12-08T19:45:45.847Z,71.10
2017-12-08T19:48:15.548Z,71.40
2017-12-08T19:50:44.172Z,71.30
2017-12-08T19:53:13.123Z,71.50
2017-12-08T19:55:42.021Z,71.60
2017-12-08T19:58:11.519Z,71.70
2017-12-08T20:00:40.411Z,71.60
2017-12-08T20:03:09.405Z,71.60
2017-12-08T20:05:38.193Z,71.40
2017-12-08T20:08:06.876Z,71.20
2017-12-08T20:10:35.667Z,71.60
2017-12-08T20:13:04.559Z,71.80
2017-12-08T20:15:33.856Z,72.00
2017-12-08T20:18:02.747Z,72.10
2017-12-08T20:20:31.639Z,72.10
2017-12-08T20:23:01.352Z,72.50
2017-12-08T20:25:30.241Z,72.50
2017-12-08T20:27:58.863Z,72.60
2017-12-08T20:30:27.613Z,72.80
2017-12-08T20:32:56.504Z,73.10
2017-12-08T20:35:25.337Z,73.20
2017-12-08T20:37:54.081Z,73.40
2017-12-08T20:40:22.973Z,73.90
2017-12-08T20:42:51.665Z,73.80
2017-12-08T20:45:20.551Z,73.90
2017-12-08T20:47:49.448Z,74.30
2017-12-08T20:50:18.331Z,74.60
2017-12-08T20:52:47.239Z,75.10
2017-12-08T20:55:16.114Z,75.30
2017-12-08T20:57:45.016Z,75.30
2017-12-08T21:00:13.948Z,75.40
2017-12-08T21:02:43.001Z,75.60
2017-12-08T21:05:11.880Z,75.60
2017-12-08T21:07:41.397Z,76.30
2017-12-08T21:10:11.052Z,76.10
2017-12-08T21:12:39.988Z,76.00
2017-12-08T21:15:08.679Z,76.20
2017-12-08T21:17:37.566Z,76.50
2017-12-08T21:20:06.262Z,76.10
2017-12-08T21:22:35.759Z,76.10
2017-12-08T21:25:04.648Z,76.10
2017-12-08T21:27:34.155Z,76.50
2017-12-08T21:30:02.788Z,76.60
2017-12-08T21:32:31.733Z,77.20
2017-12-08T21:35:00.418Z,76.80
2017-12-08T21:37:29.307Z,76.80
2017-12-08T21:39:58.206Z,76.70
2017-12-08T21:42:27.090Z,77.00
2017-12-08T21:44:59.760Z,77.30
2017-12-08T21:47:28.558Z,77.30
2017-12-08T21:49:57.542Z,77.50
2017-12-08T21:52:26.633Z,77.20
2017-12-08T21:54:55.948Z,77.60
2017-12-08T21:57:24.822Z,77.40
2017-12-08T21:59:53.626Z,77.10
2017-12-08T22:02:22.423Z,76.30
2017-12-08T22:04:52.126Z,76.70
2017-12-08T22:07:21.843Z,75.90
2017-12-08T22:09:57.612Z,75.90
2017-12-08T22:12:26.795Z,76.10
2017-12-08T22:14:55.690Z,75.80
2017-12-08T22:17:24.576Z,75.80
2017-12-08T22:19:53.680Z,75.00
2017-12-08T22:22:22.765Z,74.60
2017-12-08T22:24:51.833Z,73.80
2017-12-08T22:27:20.953Z,74.00
2017-12-08T22:29:49.743Z,73.20
2017-12-08T22:32:18.947Z,72.20
2017-12-08T22:34:49.346Z,71.70
2017-12-08T22:37:18.787Z,70.90
2017-12-08T22:39:48.479Z,70.80
2017-12-08T22:42:18.209Z,70.00
2017-12-08T22:44:47.093Z,69.90
2017-12-08T22:47:16.751Z,70.00
2017-12-08T22:49:45.893Z,70.00
2017-12-08T22:52:14.781Z,70.40
2017-12-08T22:54:43.672Z,70.60
2017-12-08T22:57:13.124Z,70.80
2017-12-08T22:59:42.068Z,70.80
2017-12-08T23:02:10.982Z,70.90
2017-12-08T23:04:39.747Z,70.70
2017-12-08T23:07:09.049Z,70.80
2017-12-08T23:09:38.039Z,71.30
2017-12-08T23:12:06.834Z,71.40
2017-12-08T23:14:35.768Z,71.40
2017-12-08T23:17:04.610Z,71.60
2017-12-08T23:19:33.306Z,71.80
2017-12-08T23:22:02.399Z,71.80
2017-12-08T23:24:32.208Z,71.30
2017-12-08T23:27:01.000Z,71.30
2017-12-08T23:29:30.572Z,70.90
2017-12-08T23:31:59.399Z,70.80
2017-12-08T23:34:28.901Z,70.90
2017-12-08T23:36:57.793Z,71.00
2017-12-08T23:39:32.622Z,71.60
2017-12-08T23:42:01.510Z,71.10
2017-12-08T23:44:31.004Z,71.20
2017-12-08T23:47:06.057Z,71.40
2017-12-08T23:49:35.570Z,71.40
2017-12-08T23:52:12.023Z,71.30
2017-12-08T23:54:41.124Z,71.30
2017-12-08T23:57:10.011Z,71.10
2017-12-08T23:59:38.902Z,71.10
